SBSV/SSA METAR and TAF weather

Enter ICAO airport designator
Station Type Date Time Source
SBSV METAR 2021/01/16 03:00 UTC NOAA

SBSV 160300Z 09009KT 9999 FEW020 FEW023TCU SCT060 27/22 Q1011


Station Type Date Time Source
SBSV Decoded METAR 2021/01/16 03:00 UTC NOAA

Salvador Aeroporto , Brazil (SBSV) 12-54S 038-20W 13M
Jan 15, 2021 - 10:00 PM EST / 2021.01.16 0300 UTC
Wind: from the E (090 degrees) at 10 MPH (9 KT):0
Visibility: greater than 7 mile(s):0
Sky conditions: partly cloudy
Weather: Towering cumulus clouds observed
Temperature: 80 F (27 C)
Dew Point: 71 F (22 C)
Relative Humidity: 74%
Pressure (altimeter): 29.85 in. Hg (1011 hPa)
ob: SBSV 160300Z 09009KT 9999 FEW020 FEW023TCU SCT060 27/22 Q1011
cycle: 3

Station Type Date Time Source
SBSV TAF 2021/01/16 06:06 UTC NOAA

TAF SBSV 160200Z 1606/1706 08012KT 9999 SCT022 TN25/1609Z TX29/1617Z
TEMPO 1606/1614 8000 SHRA SCT030 FEW035TCU
BECMG 1614/1616 13005KT SCT020
RMK PGL

Example: see airport list